| time (UTC) | temp F | wind direction | speed MPH | gust MPH | rain 1hr in | rain 24hr in | rain mn in | humidity % | barometer mb |
| 20260510173856 | 74 | 276 | 0.0 | 11.0 | 0.00 | 0.00 | 0.00 | 29 | 972.4 |
| 20260510173353 | 73 | 285 | 2.0 | 11.0 | 0.00 | 0.00 | 0.00 | 27 | 972.4 |
| 20260510172856 | 73 | 272 | 0.0 | 3.0 | 0.00 | 0.00 | 0.00 | 29 | 972.5 |
| 20260510172353 | 72 | 272 | 0.0 | 5.0 | 0.00 | 0.00 | 0.00 | 29 | 972.7 |
| 20260510171853 | 72 | 171 | 1.0 | 5.0 | 0.00 | 0.00 | 0.00 | 29 | 972.5 |
| 20260510171354 | 72 | 302 | 0.0 | 6.0 | 0.00 | 0.00 | 0.00 | 30 | 972.5 |
| 20260510170901 | 73 | 182 | 1.0 | 3.0 | 0.00 | 0.00 | 0.00 | 28 | 972.7 |
| 20260510170853 | 72 | 147 | 0.0 | 6.0 | 0.00 | 0.00 | 0.00 | 28 | 972.5 |
| 20260510165854 | 73 | 271 | 0.0 | 9.0 | 0.00 | 0.00 | 0.00 | 28 | 972.5 |
| 20260510165354 | 72 | 243 | 0.0 | 9.0 | 0.00 | 0.00 | 0.00 | 29 | 972.8 |
| 20260510164854 | 72 | 221 | 1.0 | 9.0 | 0.00 | 0.00 | 0.00 | 29 | 972.9 |
| 20260510164354 | 72 | 158 | 0.0 | 6.0 | 0.00 | 0.00 | 0.00 | 30 | 972.9 |
| 20260510163901 | 72 | 200 | 0.0 | 10.0 | 0.00 | 0.00 | 0.00 | 29 | 972.8 |
| 20260510163854 | 72 | 226 | 0.0 | 10.0 | 0.00 | 0.00 | 0.00 | 30 | 972.9 |
| 20260510162853 | 72 | 213 | 1.0 | 7.0 | 0.00 | 0.00 | 0.00 | 30 | 972.9 |
| 20260510162353 | 71 | 250 | 2.0 | 9.0 | 0.00 | 0.00 | 0.00 | 30 | 972.9 |
| 20260510161854 | 71 | 200 | 0.0 | 11.0 | 0.00 | 0.00 | 0.00 | 31 | 972.9 |
| 20260510161353 | 71 | 203 | 0.0 | 11.0 | 0.00 | 0.00 | 0.00 | 32 | 973.1 |
| 20260510160855 | 70 | 212 | 1.0 | 7.0 | 0.00 | 0.00 | 0.00 | 33 | 973.1 |
| 20260510160351 | 70 | 197 | 0.0 | 13.0 | 0.00 | 0.00 | 0.00 | 36 | 973.1 |
| 20260510155902 | 69 | 204 | 0.0 | 10.0 | 0.00 | 0.00 | 0.00 | 38 | 973.2 |
| 20260510155853 | 69 | 237 | 1.0 | 13.0 | 0.00 | 0.00 | 0.00 | 38 | 973.2 |
| 20260510154852 | 69 | 173 | 3.0 | 10.0 | 0.00 | 0.00 | 0.00 | 37 | 973.3 |
| 20260510154351 | 69 | 172 | 1.0 | 9.0 | 0.00 | 0.00 | 0.00 | 38 | 973.4 |
| 20260510153852 | 68 | 262 | 3.0 | 9.0 | 0.00 | 0.00 | 0.00 | 38 | 973.4 |
| 20260510153359 | 67 | 203 | 1.0 | 7.0 | 0.00 | 0.00 | 0.00 | 40 | 973.5 |
| 20260510153351 | 67 | 238 | 1.0 | 6.0 | 0.00 | 0.00 | 0.00 | 40 | 973.4 |
| 20260510152352 | 67 | 186 | 1.0 | 7.0 | 0.00 | 0.00 | 0.00 | 39 | 973.5 |
| 20260510151852 | 67 | 199 | 1.0 | 11.0 | 0.00 | 0.00 | 0.00 | 40 | 973.5 |
| 20260510151351 | 67 | 209 | 0.0 | 11.0 | 0.00 | 0.00 | 0.00 | 40 | 973.5 |
| 20260510150852 | 67 | 251 | 0.0 | 5.0 | 0.00 | 0.00 | 0.00 | 42 | 973.6 |
| 20260510150350 | 65 | 235 | 0.0 | 4.0 | 0.00 | 0.00 | 0.00 | 44 | 973.4 |
| 20260510145852 | 65 | 227 | 0.0 | 4.0 | 0.00 | 0.00 | 0.00 | 45 | 973.5 |
| 20260510145350 | 64 | 213 | 0.0 | 3.0 | 0.00 | 0.00 | 0.00 | 48 | 973.5 |
| 20260510144852 | 63 | 244 | 0.0 | 2.0 | 0.00 | 0.00 | 0.00 | 50 | 973.5 |
| 20260510144350 | 62 | 244 | 0.0 | 0.0 | 0.00 | 0.00 | 0.00 | 50 | 973.5 |
| 20260510143852 | 61 | 244 | 0.0 | 1.0 | 0.00 | 0.00 | 0.00 | 52 | 973.6 |
| 20260510143357 | 60 | 243 | 0.0 | 4.0 | 0.00 | 0.00 | 0.00 | 53 | 973.8 |
| 20260510143349 | 61 | 244 | 0.0 | 1.0 | 0.00 | 0.00 | 0.00 | 52 | 973.7 |
| 20260510142349 | 58 | 278 | 2.0 | 4.0 | 0.00 | 0.00 | 0.00 | 55 | 973.8 |
| 20260510141850 | 58 | 276 | 0.0 | 4.0 | 0.00 | 0.00 | 0.00 | 56 | 973.7 |
| 20260510141350 | 57 | 235 | 0.0 | 5.0 | 0.00 | 0.00 | 0.00 | 58 | 973.7 |
| 20260510140858 | 54 | 217 | 0.0 | 6.0 | 0.00 | 0.00 | 0.00 | 63 | 973.8 |
| 20260510140850 | 56 | 288 | 0.0 | 5.0 | 0.00 | 0.00 | 0.00 | 60 | 973.7 |
| 20260510140515 | 53 | 275 | 1.0 | 6.0 | 0.00 | 0.00 | 0.00 | 65 | 973.8 |
| 20260510135349 | 52 | 276 | 0.0 | 5.0 | 0.00 | 0.00 | 0.00 | 67 | 973.9 |
| 20260510134849 | 51 | 271 | 0.0 | 1.0 | 0.00 | 0.00 | 0.00 | 68 | 973.9 |
| 20260510134349 | 51 | 271 | 0.0 | 7.0 | 0.00 | 0.00 | 0.00 | 69 | 974.0 |
| 20260510133850 | 50 | 268 | 2.0 | 7.0 | 0.00 | 0.00 | 0.00 | 70 | 974.1 |
| 20260510133356 | 49 | 285 | 1.0 | 3.0 | 0.00 | 0.00 | 0.00 | 74 | 974.0 |
| 20260510133348 | 49 | 282 | 0.0 | 3.0 | 0.00 | 0.00 | 0.00 | 72 | 974.2 |
| 20260510132347 | 48 | 286 | 0.0 | 3.0 | 0.00 | 0.00 | 0.00 | 75 | 974.2 |
| 20260510131857 | 47 | 286 | 0.0 | 2.0 | 0.00 | 0.00 | 0.00 | 77 | 974.3 |
| 20260510131848 | 47 | 286 | 0.0 | 0.0 | 0.00 | 0.00 | 0.00 | 77 | 974.2 |
| 20260510130847 | 46 | 286 | 0.0 | 2.0 | 0.00 | 0.00 | 0.00 | 78 | 974.3 |
| 20260510130348 | 46 | 286 | 0.0 | 0.0 | 0.00 | 0.00 | 0.00 | 78 | 974.3 |
| 20260510125848 | 46 | 286 | 0.0 | 0.0 | 0.00 | 0.00 | 0.00 | 78 | 974.3 |
| 20260510125348 | 46 | 286 | 0.0 | 0.0 | 0.00 | 0.00 | 0.00 | 78 | 974.3 |
| 20260510124848 | 45 | 286 | 0.0 | 0.0 | 0.00 | 0.00 | 0.00 | 78 | 974.3 |
| 20260510124347 | 45 | 286 | 0.0 | 0.0 | 0.00 | 0.00 | 0.00 | 78 | 974.3 |
| 20260510123846 | 45 | 286 | 0.0 | 0.0 | 0.00 | 0.00 | 0.00 | 78 | 974.4 |
| 20260510123346 | 45 | 286 | 0.0 | 0.0 | 0.00 | 0.00 | 0.00 | 78 | 974.4 |
| 20260510122848 | 45 | 286 | 0.0 | 2.0 | 0.00 | 0.00 | 0.00 | 78 | 974.3 |
| 20260510122353 | 45 | 286 | 0.0 | 0.0 | 0.00 | 0.00 | 0.00 | 78 | 974.4 |
| 20260510122345 | 45 | 286 | 0.0 | 2.0 | 0.00 | 0.00 | 0.00 | 78 | 974.4 |
| 20260510121345 | 45 | 286 | 0.0 | 0.0 | 0.00 | 0.00 | 0.00 | 78 | 974.3 |
| 20260510120848 | 45 | 286 | 0.0 | 0.0 | 0.00 | 0.00 | 0.00 | 77 | 974.4 |
| 20260510120345 | 45 | 286 | 0.0 | 0.0 | 0.00 | 0.00 | 0.00 | 77 | 974.3 |
| 20260510115848 | 45 | 286 | 0.0 | 0.0 | 0.00 | 0.00 | 0.00 | 77 | 974.4 |
| 20260510115515 | 45 | 286 | 0.0 | 1.0 | 0.00 | 0.00 | 0.00 | 77 | 974.4 |
| 20260510115353 | 45 | 286 | 0.0 | 0.0 | 0.00 | 0.00 | 0.00 | 77 | 974.4 |
| 20260510115346 | 45 | 286 | 0.0 | 0.0 | 0.00 | 0.00 | 0.00 | 77 | 974.4 |
| 20260510113855 | 45 | 286 | 0.0 | 0.0 | 0.00 | 0.00 | 0.00 | 77 | 974.5 |
| 20260510113846 | 45 | 286 | 0.0 | 1.0 | 0.00 | 0.00 | 0.00 | 77 | 974.4 |
| 20260510112847 | 45 | 286 | 0.0 | 0.0 | 0.00 | 0.00 | 0.00 | 76 | 974.6 |
| 20260510112346 | 45 | 286 | 0.0 | 0.0 | 0.00 | 0.00 | 0.00 | 76 | 974.6 |
| 20260510111847 | 45 | 286 | 0.0 | 0.0 | 0.00 | 0.00 | 0.00 | 77 | 974.8 |
| 20260510111345 | 45 | 286 | 0.0 | 0.0 | 0.00 | 0.00 | 0.00 | 77 | 974.8 |
| 20260510110846 | 46 | 286 | 0.0 | 0.0 | 0.00 | 0.00 | 0.00 | 78 | 974.8 |
| 20260510110344 | 46 | 286 | 0.0 | 0.0 | 0.00 | 0.00 | 0.00 | 77 | 974.9 |
| 20260510105846 | 46 | 286 | 0.0 | 0.0 | 0.00 | 0.00 | 0.00 | 77 | 975.0 |
| 20260510105344 | 46 | 286 | 0.0 | 0.0 | 0.00 | 0.00 | 0.00 | 76 | 975.0 |
| 20260510104846 | 46 | 286 | 0.0 | 0.0 | 0.00 | 0.00 | 0.00 | 75 | 975.0 |
| 20260510104343 | 47 | 286 | 0.0 | 0.0 | 0.00 | 0.00 | 0.00 | 74 | 975.1 |
| 20260510103845 | 47 | 286 | 0.0 | 0.0 | 0.00 | 0.00 | 0.00 | 72 | 975.1 |
| 20260510103344 | 47 | 286 | 0.0 | 0.0 | 0.00 | 0.00 | 0.00 | 71 | 975.2 |
| 20260510102845 | 48 | 286 | 0.0 | 0.0 | 0.00 | 0.00 | 0.00 | 71 | 975.2 |
| 20260510102344 | 48 | 286 | 0.0 | 0.0 | 0.00 | 0.00 | 0.00 | 70 | 975.2 |
| 20260510101851 | 48 | 286 | 0.0 | 0.0 | 0.00 | 0.00 | 0.00 | 68 | 975.3 |
| 20260510101843 | 48 | 286 | 0.0 | 0.0 | 0.00 | 0.00 | 0.00 | 69 | 975.3 |
| 20260510100844 | 49 | 286 | 0.0 | 0.0 | 0.00 | 0.00 | 0.00 | 68 | 975.4 |
| 20260510100344 | 49 | 286 | 0.0 | 1.0 | 0.00 | 0.00 | 0.00 | 68 | 975.4 |
| 20260510095844 | 49 | 286 | 0.0 | 1.0 | 0.00 | 0.00 | 0.00 | 68 | 975.4 |
| 20260510095350 | 50 | 286 | 0.0 | 0.0 | 0.00 | 0.00 | 0.00 | 66 | 975.5 |
| 20260510095343 | 49 | 286 | 0.0 | 0.0 | 0.00 | 0.00 | 0.00 | 67 | 975.5 |
| 20260510094342 | 50 | 286 | 0.0 | 1.0 | 0.00 | 0.00 | 0.00 | 65 | 975.5 |
| 20260510093843 | 50 | 286 | 0.0 | 1.0 | 0.00 | 0.00 | 0.00 | 65 | 975.5 |
| 20260510093341 | 50 | 286 | 0.0 | 2.0 | 0.00 | 0.00 | 0.00 | 65 | 975.5 |
| 20260510092844 | 50 | 286 | 0.0 | 2.0 | 0.00 | 0.00 | 0.00 | 64 | 975.6 |
| 20260510092349 | 50 | 286 | 0.0 | 3.0 | 0.00 | 0.00 | 0.00 | 64 | 975.6 |
| 20260510092341 | 50 | 286 | 0.0 | 0.0 | 0.00 | 0.00 | 0.00 | 64 | 975.6 |
| 20260510091349 | 50 | 285 | 0.0 | 4.0 | 0.00 | 0.00 | 0.00 | 65 | 975.6 |
| 20260510091341 | 50 | 288 | 0.0 | 4.0 | 0.00 | 0.00 | 0.00 | 65 | 975.6 |
| 20260510090341 | 50 | 266 | 0.0 | 3.0 | 0.00 | 0.00 | 0.00 | 65 | 975.5 |
| 20260510085842 | 50 | 248 | 0.0 | 3.0 | 0.00 | 0.00 | 0.00 | 66 | 975.7 |
| 20260510085348 | 50 | 245 | 0.0 | 0.0 | 0.00 | 0.00 | 0.00 | 66 | 975.6 |
| 20260510085341 | 50 | 245 | 0.0 | 0.0 | 0.00 | 0.00 | 0.00 | 66 | 975.6 |
| 20260510084342 | 50 | 245 | 0.0 | 0.0 | 0.00 | 0.00 | 0.00 | 66 | 975.6 |
| 20260510083849 | 49 | 245 | 0.0 | 0.0 | 0.00 | 0.00 | 0.00 | 67 | 975.7 |
| 20260510083842 | 49 | 245 | 0.0 | 0.0 | 0.00 | 0.00 | 0.00 | 66 | 975.6 |
| 20260510082842 | 49 | 245 | 0.0 | 0.0 | 0.00 | 0.00 | 0.00 | 67 | 975.7 |
| 20260510082341 | 49 | 245 | 0.0 | 0.0 | 0.00 | 0.00 | 0.00 | 67 | 975.8 |
| 20260510081849 | 49 | 244 | 0.0 | 0.0 | 0.00 | 0.00 | 0.00 | 67 | 975.8 |
| 20260510081842 | 49 | 244 | 0.0 | 0.0 | 0.00 | 0.00 | 0.00 | 67 | 975.8 |
| 20260510080842 | 49 | 244 | 0.0 | 0.0 | 0.00 | 0.00 | 0.00 | 66 | 975.8 |
| 20260510080339 | 49 | 244 | 0.0 | 0.0 | 0.00 | 0.00 | 0.00 | 66 | 975.8 |
| 20260510075843 | 49 | 244 | 0.0 | 0.0 | 0.00 | 0.00 | 0.00 | 66 | 975.9 |
| 20260510075340 | 49 | 244 | 0.0 | 0.0 | 0.00 | 0.00 | 0.00 | 66 | 975.9 |
| 20260510074843 | 49 | 244 | 0.0 | 0.0 | 0.00 | 0.00 | 0.00 | 66 | 975.9 |
| 20260510074339 | 49 | 244 | 0.0 | 0.0 | 0.00 | 0.00 | 0.00 | 66 | 975.9 |
| 20260510073850 | 49 | 244 | 0.0 | 0.0 | 0.00 | 0.00 | 0.00 | 64 | 976.1 |
| 20260510073843 | 49 | 244 | 0.0 | 0.0 | 0.00 | 0.00 | 0.00 | 65 | 976.1 |
| 20260510072840 | 49 | 244 | 0.0 | 0.0 | 0.00 | 0.00 | 0.00 | 64 | 976.1 |
| 20260510072340 | 49 | 244 | 0.0 | 0.0 | 0.00 | 0.00 | 0.00 | 64 | 976.1 |
| 20260510071841 | 49 | 244 | 0.0 | 0.0 | 0.00 | 0.00 | 0.00 | 64 | 976.1 |
| 20260510071339 | 49 | 244 | 0.0 | 2.0 | 0.00 | 0.00 | 0.00 | 63 | 976.1 |
| 20260510070840 | 49 | 244 | 0.0 | 4.0 | 0.00 | 0.00 | 0.00 | 64 | 976.2 |
| 20260510070338 | 49 | 220 | 0.0 | 4.0 | 0.00 | 0.00 | 0.00 | 64 | 976.1 |
| 20260510065840 | 49 | 188 | 0.0 | 7.0 | 0.00 | 0.00 | 0.00 | 64 | 976.1 |
| 20260510065338 | 49 | 224 | 0.0 | 7.0 | 0.00 | 0.00 | 0.00 | 64 | 976.1 |
| 20260510064841 | 49 | 197 | 0.0 | 2.0 | 0.00 | 0.00 | 0.00 | 64 | 976.1 |
| 20260510064337 | 50 | 217 | 0.0 | 2.0 | 0.00 | 0.00 | 0.00 | 64 | 976.1 |
| 20260510063840 | 49 | 166 | 0.0 | 1.0 | 0.00 | 0.00 | 0.00 | 64 | 976.2 |
| 20260510063345 | 50 | 121 | 0.0 | 0.0 | 0.00 | 0.00 | 0.00 | 63 | 976.2 |
| 20260510063338 | 50 | 121 | 0.0 | 0.0 | 0.00 | 0.00 | 0.00 | 63 | 976.2 |
| 20260510062345 | 50 | 123 | 0.0 | 0.0 | 0.00 | 0.00 | 0.00 | 62 | 976.2 |
| 20260510062338 | 50 | 123 | 0.0 | 0.0 | 0.00 | 0.00 | 0.00 | 63 | 976.2 |
| 20260510061337 | 50 | 123 | 0.0 | 2.0 | 0.00 | 0.00 | 0.00 | 62 | 976.3 |
| 20260510060845 | 52 | 257 | 0.0 | 2.0 | 0.00 | 0.00 | 0.00 | 59 | 976.2 |
| 20260510060838 | 51 | 123 | 0.0 | 2.0 | 0.00 | 0.00 | 0.00 | 60 | 976.2 |
| 20260510055839 | 52 | 207 | 0.0 | 4.0 | 0.00 | 0.00 | 0.00 | 59 | 976.2 |
| 20260510055345 | 54 | 145 | 0.0 | 4.0 | 0.00 | 0.00 | 0.00 | 56 | 976.2 |
| 20260510055338 | 53 | 96 | 1.0 | 4.0 | 0.00 | 0.00 | 0.00 | 56 | 976.3 |
| 20260510054345 | 55 | 151 | 2.0 | 6.0 | 0.00 | 0.00 | 0.00 | 55 | 976.1 |
| 20260510054337 | 55 | 155 | 0.0 | 6.0 | 0.00 | 0.00 | 0.00 | 56 | 976.2 |
| 20260510053335 | 55 | 168 | 0.0 | 7.0 | 0.00 | 0.00 | 0.00 | 55 | 976.1 |
| 20260510052838 | 55 | 165 | 0.0 | 9.0 | 0.00 | 0.00 | 0.00 | 55 | 976.0 |
| 20260510052336 | 55 | 158 | 2.0 | 9.0 | 0.00 | 0.00 | 0.00 | 56 | 976.0 |
| 20260510051838 | 55 | 161 | 0.0 | 7.0 | 0.00 | 0.00 | 0.00 | 55 | 976.0 |
| 20260510051343 | 56 | 109 | 1.0 | 10.0 | 0.00 | 0.00 | 0.00 | 54 | 976.1 |
| 20260510051336 | 56 | 148 | 1.0 | 7.0 | 0.00 | 0.00 | 0.00 | 55 | 976.0 |
| 20260510050336 | 56 | 149 | 2.0 | 10.0 | 0.00 | 0.00 | 0.00 | 54 | 976.0 |
| 20260510045837 | 56 | 89 | 1.0 | 9.0 | 0.00 | 0.00 | 0.00 | 53 | 976.1 |
| 20260510045336 | 56 | 161 | 0.0 | 9.0 | 0.00 | 0.00 | 0.00 | 52 | 976.1 |
| 20260510044846 | 57 | 138 | 0.0 | 9.0 | 0.00 | 0.00 | 0.00 | 52 | 976.0 |
| 20260510044837 | 57 | 48 | 0.0 | 4.0 | 0.00 | 0.00 | 0.00 | 52 | 976.1 |
| 20260510043844 | 58 | 87 | 2.0 | 12.0 | 0.00 | 0.00 | 0.00 | 50 | 976.0 |
| 20260510043836 | 58 | 164 | 2.0 | 12.0 | 0.00 | 0.00 | 0.00 | 51 | 975.9 |
| 20260510043459 | 58 | 189 | 3.0 | 12.0 | 0.00 | 0.00 | 0.00 | 50 | 976.0 |
| 20260510043000 | 58 | 134 | 0.0 | 11.0 | 0.00 | 0.00 | 0.00 | 50 | 976.0 |
| 20260510041836 | 59 | 202 | 3.0 | 14.0 | 0.00 | 0.00 | 0.00 | 49 | 976.0 |
| 20260510041335 | 59 | 149 | 0.0 | 14.0 | 0.00 | 0.00 | 0.00 | 49 | 975.9 |
| 20260510040844 | 60 | 173 | 2.0 | 10.0 | 0.00 | 0.00 | 0.00 | 48 | 975.9 |
| 20260510040835 | 59 | 152 | 3.0 | 10.0 | 0.00 | 0.00 | 0.00 | 49 | 975.9 |
| 20260510035836 | 60 | 165 | 2.0 | 10.0 | 0.00 | 0.00 | 0.00 | 48 | 975.8 |
| 20260510035333 | 60 | 172 | 2.0 | 10.0 | 0.00 | 0.00 | 0.00 | 49 | 975.9 |
| 20260510034836 | 60 | 63 | 0.0 | 9.0 | 0.00 | 0.00 | 0.00 | 49 | 975.8 |
| 20260510034334 | 61 | 159 | 0.0 | 7.0 | 0.00 | 0.00 | 0.00 | 49 | 975.8 |
| 20260510033836 | 61 | 149 | 2.0 | 7.0 | 0.00 | 0.00 | 0.00 | 48 | 975.8 |
| 20260510033333 | 61 | 157 | 1.0 | 9.0 | 0.00 | 0.00 | 0.00 | 48 | 975.8 |
| 20260510032834 | 62 | 166 | 3.0 | 9.0 | 0.00 | 0.00 | 0.00 | 47 | 975.8 |
| 20260510032333 | 62 | 158 | 0.0 | 7.0 | 0.00 | 0.00 | 0.00 | 46 | 975.5 |
| 20260510031833 | 62 | 140 | 1.0 | 7.0 | 0.00 | 0.00 | 0.00 | 46 | 975.5 |
| 20260510031334 | 63 | 152 | 1.0 | 6.0 | 0.00 | 0.00 | 0.00 | 46 | 975.5 |
| 20260510030834 | 62 | 117 | 1.0 | 6.0 | 0.00 | 0.00 | 0.00 | 46 | 975.4 |
| 20260510030334 | 63 | 114 | 1.0 | 5.0 | 0.00 | 0.00 | 0.00 | 46 | 975.4 |
| 20260510025834 | 63 | 162 | 1.0 | 6.0 | 0.00 | 0.00 | 0.00 | 46 | 975.3 |
| 20260510025341 | 64 | 171 | 2.0 | 10.0 | 0.00 | 0.00 | 0.00 | 45 | 975.2 |
| 20260510025334 | 64 | 114 | 0.0 | 10.0 | 0.00 | 0.00 | 0.00 | 46 | 975.2 |
| 20260510025001 | 64 | 130 | 2.0 | 6.0 | 0.00 | 0.00 | 0.00 | 45 | 975.2 |
| 20260510023840 | 65 | 117 | 0.0 | 6.0 | 0.00 | 0.00 | 0.00 | 44 | 975.2 |
| 20260510023833 | 64 | 151 | 1.0 | 6.0 | 0.00 | 0.00 | 0.00 | 45 | 975.2 |
| 20260510022834 | 66 | 133 | 1.0 | 6.0 | 0.00 | 0.00 | 0.00 | 42 | 975.1 |
| 20260510022331 | 66 | 100 | 0.0 | 2.0 | 0.00 | 0.00 | 0.00 | 40 | 975.2 |
| 20260510021834 | 66 | 130 | 0.0 | 6.0 | 0.00 | 0.00 | 0.00 | 39 | 975.1 |
| 20260510021332 | 67 | 92 | 0.0 | 6.0 | 0.00 | 0.00 | 0.00 | 38 | 975.2 |
| 20260510020832 | 67 | 96 | 0.0 | 2.0 | 0.00 | 0.00 | 0.00 | 38 | 975.1 |
| 20260510020331 | 67 | 104 | 0.0 | 2.0 | 0.00 | 0.00 | 0.00 | 38 | 975.1 |
| 20260510015832 | 68 | 140 | 0.0 | 10.0 | 0.00 | 0.00 | 0.00 | 37 | 975.1 |
| 20260510015339 | 70 | 0 | 1.0 | 10.0 | 0.00 | 0.00 | 0.00 | 32 | 975.1 |
| 20260510015332 | 69 | 133 | 1.0 | 10.0 | 0.00 | 0.00 | 0.00 | 35 | 975.1 |
| 20260510014331 | 70 | 3 | 0.0 | 0.0 | 0.00 | 0.00 | 0.00 | 32 | 975.1 |
| 20260510013832 | 71 | 0 | 0.0 | 0.0 | 0.00 | 0.00 | 0.00 | 31 | 975.1 |
| 20260510013331 | 71 | 0 | 0.0 | 3.0 | 0.00 | 0.00 | 0.00 | 32 | 975.1 |
| 20260510012832 | 71 | 0 | 0.0 | 3.0 | 0.00 | 0.00 | 0.00 | 32 | 975.1 |
| 20260510012337 | 71 | 266 | 0.0 | 5.0 | 0.00 | 0.00 | 0.00 | 32 | 975.1 |
| 20260510012330 | 71 | 0 | 0.0 | 3.0 | 0.00 | 0.00 | 0.00 | 32 | 975.1 |
| 20260510011329 | 71 | 265 | 0.0 | 5.0 | 0.00 | 0.00 | 0.00 | 31 | 975.0 |
| 20260510010833 | 71 | 3 | 0.0 | 3.0 | 0.00 | 0.00 | 0.00 | 32 | 975.1 |
| 20260510010329 | 71 | 1 | 0.0 | 0.0 | 0.00 | 0.00 | 0.00 | 31 | 975.1 |
| 20260510005832 | 71 | 338 | 0.0 | 0.0 | 0.00 | 0.00 | 0.00 | 31 | 975.1 |
| 20260510005330 | 71 | 338 | 0.0 | 0.0 | 0.00 | 0.00 | 0.00 | 32 | 975.1 |
| 20260510004831 | 70 | 341 | 0.0 | 0.0 | 0.00 | 0.00 | 0.00 | 32 | 975.1 |
| 20260510004329 | 71 | 341 | 0.0 | 0.0 | 0.00 | 0.00 | 0.00 | 34 | 975.1 |
| 20260510003838 | 72 | 340 | 0.0 | 7.0 | 0.00 | 0.00 | 0.00 | 30 | 975.0 |
| 20260510003830 | 71 | 341 | 0.0 | 2.0 | 0.00 | 0.00 | 0.00 | 33 | 975.0 |
| 20260510002830 | 72 | 340 | 1.0 | 7.0 | 0.00 | 0.00 | 0.00 | 31 | 975.1 |
| 20260510002330 | 72 | 0 | 0.0 | 4.0 | 0.00 | 0.00 | 0.00 | 32 | 975.1 |
| 20260510001831 | 72 | 357 | 0.0 | 4.0 | 0.00 | 0.00 | 0.00 | 32 | 975.1 |
| 20260510001330 | 72 | 0 | 0.0 | 2.0 | 0.00 | 0.00 | 0.00 | 31 | 975.1 |
| 20260510000829 | 72 | 333 | 1.0 | 6.0 | 0.00 | 0.00 | 0.00 | 32 | 975.0 |
| 20260510000328 | 71 | 334 | 0.0 | 6.0 | 0.00 | 0.00 | 0.00 | 33 | 975.0 |
| 20260509235830 | 71 | 6 | 2.0 | 5.0 | 0.00 | 0.00 | 0.00 | 32 | 975.0 |
| 20260509235336 | 71 | 25 | 0.0 | 3.0 | 0.00 | 0.00 | 0.00 | 32 | 975.1 |
| 20260509235328 | 71 | 78 | 0.0 | 3.0 | 0.00 | 0.00 | 0.00 | 32 | 975.0 |
| 20260509234954 | 71 | 319 | 0.0 | 7.0 | 0.00 | 0.00 | 0.00 | 33 | 975.1 |
| 20260509233830 | 71 | 319 | 0.0 | 7.0 | 0.00 | 0.00 | 0.00 | 32 | 975.1 |
| 20260509233327 | 71 | 343 | 0.0 | 7.0 | 0.00 | 0.00 | 0.00 | 32 | 975.2 |
| 20260509232830 | 71 | 272 | 0.0 | 7.0 | 0.00 | 0.00 | 0.00 | 31 | 975.0 |
| 20260509232327 | 71 | 259 | 0.0 | 6.0 | 0.00 | 0.00 | 0.00 | 33 | 975.0 |
| 20260509231829 | 71 | 272 | 0.0 | 6.0 | 0.00 | 0.00 | 0.00 | 31 | 975.1 |
| 20260509231328 | 72 | 312 | 0.0 | 6.0 | 0.00 | 0.00 | 0.00 | 30 | 975.1 |
| 20260509230828 | 72 | 286 | 0.0 | 6.0 | 0.00 | 0.00 | 0.00 | 31 | 975.1 |
| 20260509230328 | 73 | 302 | 0.0 | 6.0 | 0.00 | 0.00 | 0.00 | 30 | 975.2 |
| 20260509225828 | 74 | 296 | 0.0 | 9.0 | 0.00 | 0.00 | 0.00 | 29 | 975.2 |
| 20260509225327 | 75 | 341 | 0.0 | 11.0 | 0.00 | 0.00 | 0.00 | 29 | 975.2 |
| 20260509224828 | 75 | 334 | 2.0 | 11.0 | 0.00 | 0.00 | 0.00 | 29 | 975.2 |
| 20260509224326 | 75 | 295 | 2.0 | 9.0 | 0.00 | 0.00 | 0.00 | 31 | 975.1 |
| 20260509223829 | 74 | 343 | 0.0 | 9.0 | 0.00 | 0.00 | 0.00 | 30 | 975.2 |
| 20260509223332 | 74 | 254 | 0.0 | 10.0 | 0.00 | 0.00 | 0.00 | 33 | 975.2 |
| 20260509223325 | 74 | 323 | 2.0 | 9.0 | 0.00 | 0.00 | 0.00 | 30 | 975.1 |
| 20260509222326 | 73 | 310 | 0.0 | 10.0 | 0.00 | 0.00 | 0.00 | 30 | 975.2 |
| 20260509221828 | 73 | 226 | 0.0 | 1.0 | 0.00 | 0.00 | 0.00 | 33 | 975.3 |
| 20260509221333 | 72 | 307 | 2.0 | 13.0 | 0.00 | 0.00 | 0.00 | 32 | 975.4 |
| 20260509221325 | 72 | 265 | 0.0 | 13.0 | 0.00 | 0.00 | 0.00 | 31 | 975.3 |
| 20260509220332 | 72 | 323 | 2.0 | 10.0 | 0.00 | 0.00 | 0.00 | 31 | 975.3 |
| 20260509220325 | 72 | 298 | 0.0 | 10.0 | 0.00 | 0.00 | 0.00 | 31 | 975.4 |
| 20260509215333 | 73 | 303 | 0.0 | 4.0 | 0.00 | 0.00 | 0.00 | 31 | 975.3 |
| 20260509215325 | 73 | 305 | 0.0 | 6.0 | 0.00 | 0.00 | 0.00 | 30 | 975.3 |
| 20260509214952 | 73 | 300 | 0.0 | 9.0 | 0.00 | 0.00 | 0.00 | 31 | 975.2 |
| 20260509213827 | 73 | 302 | 0.0 | 9.0 | 0.00 | 0.00 | 0.00 | 30 | 975.2 |
| 20260509213333 | 74 | 338 | 1.0 | 4.0 | 0.00 | 0.00 | 0.00 | 29 | 975.3 |
| 20260509213326 | 73 | 324 | 1.0 | 6.0 | 0.00 | 0.00 | 0.00 | 30 | 975.3 |
| 20260509212326 | 74 | 34 | 0.0 | 1.0 | 0.00 | 0.00 | 0.00 | 29 | 975.3 |
| 20260509211825 | 74 | 0 | 0.0 | 12.0 | 0.00 | 0.00 | 0.00 | 28 | 975.3 |
| 20260509211323 | 76 | 1 | 1.0 | 12.0 | 0.00 | 0.00 | 0.00 | 28 | 975.5 |
| 20260509210825 | 76 | 303 | 4.0 | 10.0 | 0.00 | 0.00 | 0.00 | 28 | 975.4 |
| 20260509210331 | 74 | 307 | 0.0 | 0.0 | 0.00 | 0.00 | 0.00 | 30 | 975.4 |
| 20260509210325 | 74 | 306 | 0.0 | 0.0 | 0.00 | 0.00 | 0.00 | 31 | 975.4 |
| 20260509205324 | 73 | 11 | 0.0 | 9.0 | 0.00 | 0.00 | 0.00 | 30 | 975.4 |
| 20260509204825 | 73 | 11 | 0.0 | 9.0 | 0.00 | 0.00 | 0.00 | 31 | 975.5 |
| 20260509204323 | 73 | 350 | 2.0 | 9.0 | 0.00 | 0.00 | 0.00 | 29 | 975.5 |
| 20260509203824 | 73 | 0 | 1.0 | 10.0 | 0.00 | 0.00 | 0.00 | 30 | 975.5 |
| 20260509203323 | 72 | 0 | 3.0 | 10.0 | 0.00 | 0.00 | 0.00 | 30 | 975.5 |
| 20260509202824 | 72 | 283 | 0.0 | 2.0 | 0.00 | 0.00 | 0.00 | 32 | 975.5 |
| 20260509202323 | 72 | 32 | 0.0 | 2.0 | 0.00 | 0.00 | 0.00 | 32 | 975.4 |
| 20260509201837 | 73 | 103 | 0.0 | 0.0 | 0.00 | 0.00 | 0.00 | 31 | 975.3 |
| 20260509201828 | 73 | 103 | 0.0 | 0.0 | 0.00 | 0.00 | 0.00 | 33 | 975.3 |
| 20260509201449 | 73 | 0 | 0.0 | 0.0 | 0.00 | 0.00 | 0.00 | 34 | 975.3 |
| 20260509200948 | 72 | 0 | 0.0 | 6.0 | 0.00 | 0.00 | 0.00 | 33 | 975.4 |
| 20260509195823 | 71 | 0 | 0.0 | 6.0 | 0.00 | 0.00 | 0.00 | 34 | 975.4 |
| 20260509195322 | 71 | 0 | 0.0 | 5.0 | 0.00 | 0.00 | 0.00 | 34 | 975.5 |
| 20260509194823 | 71 | 357 | 0.0 | 1.0 | 0.00 | 0.00 | 0.00 | 34 | 975.6 |
| 20260509194321 | 71 | 357 | 0.0 | 5.0 | 0.00 | 0.00 | 0.00 | 34 | 975.5 |
| 20260509193831 | 72 | 0 | 4.0 | 7.0 | 0.00 | 0.00 | 0.00 | 34 | 975.5 |
| 20260509193824 | 71 | 354 | 1.0 | 7.0 | 0.00 | 0.00 | 0.00 | 33 | 975.5 |
| 20260509192824 | 71 | 320 | 0.0 | 6.0 | 0.00 | 0.00 | 0.00 | 34 | 975.5 |
| 20260509192321 | 71 | 320 | 0.0 | 4.0 | 0.00 | 0.00 | 0.00 | 35 | 975.5 |
| 20260509191824 | 70 | 1 | 1.0 | 3.0 | 0.00 | 0.00 | 0.00 | 38 | 975.5 |
| 20260509191321 | 70 | 106 | 2.0 | 7.0 | 0.00 | 0.00 | 0.00 | 36 | 975.5 |
| 20260509190823 | 71 | 106 | 2.0 | 7.0 | 0.00 | 0.00 | 0.00 | 36 | 975.4 |
| 20260509190321 | 71 | 16 | 0.0 | 0.0 | 0.00 | 0.00 | 0.00 | 37 | 975.5 |
| 20260509185823 | 71 | 10 | 0.0 | 7.0 | 0.00 | 0.00 | 0.00 | 34 | 975.5 |
| 20260509185322 | 71 | 10 | 0.0 | 7.0 | 0.00 | 0.00 | 0.00 | 35 | 975.5 |
| 20260509184822 | 71 | 358 | 4.0 | 9.0 | 0.00 | 0.00 | 0.00 | 36 | 975.5 |
| 20260509184321 | 70 | 6 | 2.0 | 9.0 | 0.00 | 0.00 | 0.00 | 39 | 975.5 |
| 20260509183830 | 69 | 21 | 1.0 | 5.0 | 0.00 | 0.00 | 0.00 | 39 | 975.7 |
| 20260509183822 | 69 | 0 | 1.0 | 4.0 | 0.00 | 0.00 | 0.00 | 39 | 975.6 |
| 20260509182822 | 69 | 34 | 0.0 | 5.0 | 0.00 | 0.00 | 0.00 | 41 | 975.7 |
| 20260509182319 | 68 | 345 | 0.0 | 4.0 | 0.00 | 0.00 | 0.00 | 39 | 975.6 |
| 20260509181822 | 67 | 350 | 0.0 | 3.0 | 0.00 | 0.00 | 0.00 | 41 | 975.6 |
| 20260509181320 | 68 | 350 | 0.0 | 0.0 | 0.00 | 0.00 | 0.00 | 43 | 975.7 |
| 20260509180823 | 67 | 348 | 0.0 | 0.0 | 0.00 | 0.00 | 0.00 | 39 | 975.7 |
| 20260509180319 | 67 | 348 | 0.0 | 0.0 | 0.00 | 0.00 | 0.00 | 39 | 975.7 |
| 20260509175821 | 67 | 348 | 0.0 | 5.0 | 0.00 | 0.00 | 0.00 | 40 | 975.6 |
| 20260509175326 | 65 | 350 | 1.0 | 5.0 | 0.00 | 0.00 | 0.00 | 44 | 975.5 |
| 20260509175319 | 66 | 350 | 1.0 | 5.0 | 0.00 | 0.00 | 0.00 | 40 | 975.6 |
| 20260509174319 | 65 | 166 | 2.0 | 3.0 | 0.00 | 0.00 | 0.00 | 45 | 975.4 |